sensor_id;sensor_type;location;lat;lon;timestamp;pressure;altitude;pressure_sealevel;temperature
7830;BMP180;3960;51.86894000;5.39848000;2023-05-29T00:00:22;102405.56;;;11.92
7830;BMP180;3960;51.86894000;5.39848000;2023-05-29T00:02:49;102387.13;;;11.68
7830;BMP180;3960;51.86894000;5.39848000;2023-05-29T00:05:16;102330.94;;;11.32
7830;BMP180;3960;51.86894000;5.39848000;2023-05-29T00:07:41;102420.22;;;11.84
7830;BMP180;3960;51.86894000;5.39848000;2023-05-29T00:10:08;102385.84;;;11.55
7830;BMP180;3960;51.86894000;5.39848000;2023-05-29T00:12:34;102387.75;;;11.51
7830;BMP180;3960;51.86894000;5.39848000;2023-05-29T00:14:59;102356.50;;;11.31
7830;BMP180;3960;51.86894000;5.39848000;2023-05-29T00:17:25;102318.25;;;11.03
7830;BMP180;3960;51.86894000;5.39848000;2023-05-29T00:19:50;102364.94;;;11.23
7830;BMP180;3960;51.86894000;5.39848000;2023-05-29T00:22:16;102419.19;;;11.56
7830;BMP180;3960;51.86894000;5.39848000;2023-05-29T00:24:41;102414.03;;;11.47
7830;BMP180;3960;51.86894000;5.39848000;2023-05-29T00:27:07;102383.56;;;11.24
7830;BMP180;3960;51.86894000;5.39848000;2023-05-29T00:29:34;102376.50;;;11.16
7830;BMP180;3960;51.86894000;5.39848000;2023-05-29T00:31:59;102420.53;;;11.39
7830;BMP180;3960;51.86894000;5.39848000;2023-05-29T00:34:25;102437.66;;;11.47
7830;BMP180;3960;51.86894000;5.39848000;2023-05-29T00:36:50;102429.06;;;11.41
7830;BMP180;3960;51.86894000;5.39848000;2023-05-29T00:39:15;102430.59;;;11.39
7830;BMP180;3960;51.86894000;5.39848000;2023-05-29T00:41:41;102410.69;;;11.24
7830;BMP180;3960;51.86894000;5.39848000;2023-05-29T00:44:06;102386.44;;;11.05
7830;BMP180;3960;51.86894000;5.39848000;2023-05-29T00:46:32;102366.16;;;10.92
7830;BMP180;3960;51.86894000;5.39848000;2023-05-29T00:48:59;102328.19;;;10.60
7830;BMP180;3960;51.86894000;5.39848000;2023-05-29T00:51:25;102440.59;;;11.31
7830;BMP180;3960;51.86894000;5.39848000;2023-05-29T00:53:52;102427.31;;;11.23
7830;BMP180;3960;51.86894000;5.39848000;2023-05-29T00:56:21;102410.47;;;11.07
7830;BMP180;3960;51.86894000;5.39848000;2023-05-29T00:58:49;102365.16;;;10.75
7830;BMP180;3960;51.86894000;5.39848000;2023-05-29T01:01:17;102395.19;;;10.92
7830;BMP180;3960;51.86894000;5.39848000;2023-05-29T01:03:43;102413.00;;;10.93
7830;BMP180;3960;51.86894000;5.39848000;2023-05-29T01:06:08;102451.69;;;11.19
7830;BMP180;3960;51.86894000;5.39848000;2023-05-29T01:08:35;102460.59;;;11.20
7830;BMP180;3960;51.86894000;5.39848000;2023-05-29T01:11:11;102465.97;;;11.16
7830;BMP180;3960;51.86894000;5.39848000;2023-05-29T01:13:40;102380.06;;;10.58
7830;BMP180;3960;51.86894000;5.39848000;2023-05-29T01:16:20;102463.97;;;11.10
7830;BMP180;3960;51.86894000;5.39848000;2023-05-29T01:18:54;102448.72;;;10.98
7830;BMP180;3960;51.86894000;5.39848000;2023-05-29T01:22:03;102462.78;;;11.07
7830;BMP180;3960;51.86894000;5.39848000;2023-05-29T01:27:07;102451.34;;;10.91
7830;BMP180;3960;51.86894000;5.39848000;2023-05-29T01:29:37;102472.34;;;10.98
7830;BMP180;3960;51.86894000;5.39848000;2023-05-29T01:32:04;102461.72;;;10.86
7830;BMP180;3960;51.86894000;5.39848000;2023-05-29T01:34:30;102483.16;;;10.94
7830;BMP180;3960;51.86894000;5.39848000;2023-05-29T01:36:55;102471.84;;;10.89
7830;BMP180;3960;51.86894000;5.39848000;2023-05-29T01:39:21;102486.53;;;10.88
7830;BMP180;3960;51.86894000;5.39848000;2023-05-29T01:41:47;102429.47;;;10.52
7830;BMP180;3960;51.86894000;5.39848000;2023-05-29T01:44:13;102484.13;;;10.83
7830;BMP180;3960;51.86894000;5.39848000;2023-05-29T01:46:43;102491.13;;;10.84
7830;BMP180;3960;51.86894000;5.39848000;2023-05-29T01:49:11;102490.72;;;10.82
7830;BMP180;3960;51.86894000;5.39848000;2023-05-29T01:51:37;102465.69;;;10.66
7830;BMP180;3960;51.86894000;5.39848000;2023-05-29T01:54:03;102480.13;;;10.74
7830;BMP180;3960;51.86894000;5.39848000;2023-05-29T01:56:30;102471.03;;;10.59
7830;BMP180;3960;51.86894000;5.39848000;2023-05-29T01:58:56;102483.56;;;10.71
7830;BMP180;3960;51.86894000;5.39848000;2023-05-29T02:01:22;102464.34;;;10.53
7830;BMP180;3960;51.86894000;5.39848000;2023-05-29T02:03:48;102472.47;;;10.53
7830;BMP180;3960;51.86894000;5.39848000;2023-05-29T02:06:13;102463.09;;;10.47
7830;BMP180;3960;51.86894000;5.39848000;2023-05-29T02:08:39;102413.81;;;10.13
7830;BMP180;3960;51.86894000;5.39848000;2023-05-29T02:11:04;102479.41;;;10.51
7830;BMP180;3960;51.86894000;5.39848000;2023-05-29T02:13:31;102448.94;;;10.31
7830;BMP180;3960;51.86894000;5.39848000;2023-05-29T02:15:56;102478.94;;;10.45
7830;BMP180;3960;51.86894000;5.39848000;2023-05-29T02:18:21;102482.41;;;10.46
7830;BMP180;3960;51.86894000;5.39848000;2023-05-29T02:20:46;102475.25;;;10.34
7830;BMP180;3960;51.86894000;5.39848000;2023-05-29T02:23:12;102480.28;;;10.32
7830;BMP180;3960;51.86894000;5.39848000;2023-05-29T02:25:37;102489.28;;;10.40
7830;BMP180;3960;51.86894000;5.39848000;2023-05-29T02:28:03;102457.53;;;10.15
7830;BMP180;3960;51.86894000;5.39848000;2023-05-29T02:30:29;102481.69;;;10.23
7830;BMP180;3960;51.86894000;5.39848000;2023-05-29T02:32:55;102490.25;;;10.28
7830;BMP180;3960;51.86894000;5.39848000;2023-05-29T02:35:20;102461.69;;;10.09
7830;BMP180;3960;51.86894000;5.39848000;2023-05-29T02:37:51;102498.38;;;10.28
7830;BMP180;3960;51.86894000;5.39848000;2023-05-29T02:40:17;102472.56;;;10.12
7830;BMP180;3960;51.86894000;5.39848000;2023-05-29T02:42:42;102448.78;;;9.99
7830;BMP180;3960;51.86894000;5.39848000;2023-05-29T02:45:08;102473.78;;;10.15
7830;BMP180;3960;51.86894000;5.39848000;2023-05-29T02:47:34;102479.56;;;10.13
7830;BMP180;3960;51.86894000;5.39848000;2023-05-29T02:49:59;102471.00;;;10.11
7830;BMP180;3960;51.86894000;5.39848000;2023-05-29T02:52:24;102479.50;;;10.10
7830;BMP180;3960;51.86894000;5.39848000;2023-05-29T02:54:50;102448.50;;;9.85
7830;BMP180;3960;51.86894000;5.39848000;2023-05-29T02:57:15;102498.16;;;10.15
7830;BMP180;3960;51.86894000;5.39848000;2023-05-29T02:59:41;102441.44;;;9.80
7830;BMP180;3960;51.86894000;5.39848000;2023-05-29T03:02:06;102485.66;;;10.07
7830;BMP180;3960;51.86894000;5.39848000;2023-05-29T03:04:32;102498.03;;;10.08
7830;BMP180;3960;51.86894000;5.39848000;2023-05-29T03:06:57;102431.88;;;9.64
7830;BMP180;3960;51.86894000;5.39848000;2023-05-29T03:09:22;102485.78;;;9.95
7830;BMP180;3960;51.86894000;5.39848000;2023-05-29T03:11:47;102491.56;;;9.93
7830;BMP180;3960;51.86894000;5.39848000;2023-05-29T03:14:15;102494.00;;;9.98
7830;BMP180;3960;51.86894000;5.39848000;2023-05-29T03:16:40;102471.59;;;9.79
7830;BMP180;3960;51.86894000;5.39848000;2023-05-29T03:19:06;102459.50;;;9.73
7830;BMP180;3960;51.86894000;5.39848000;2023-05-29T03:21:32;102493.44;;;9.89
7830;BMP180;3960;51.86894000;5.39848000;2023-05-29T03:23:57;102438.22;;;9.52
7830;BMP180;3960;51.86894000;5.39848000;2023-05-29T03:26:23;102475.06;;;9.79
7830;BMP180;3960;51.86894000;5.39848000;2023-05-29T03:28:48;102470.31;;;9.73
7830;BMP180;3960;51.86894000;5.39848000;2023-05-29T03:31:13;102505.41;;;9.88
7830;BMP180;3960;51.86894000;5.39848000;2023-05-29T03:33:39;102440.09;;;9.48
7830;BMP180;3960;51.86894000;5.39848000;2023-05-29T03:36:04;102395.44;;;9.17
7830;BMP180;3960;51.86894000;5.39848000;2023-05-29T03:38:30;102483.13;;;9.76
7830;BMP180;3960;51.86894000;5.39848000;2023-05-29T03:40:55;102481.97;;;9.77
7830;BMP180;3960;51.86894000;5.39848000;2023-05-29T03:43:21;102468.63;;;9.65
7830;BMP180;3960;51.86894000;5.39848000;2023-05-29T03:45:46;102455.69;;;9.55
7830;BMP180;3960;51.86894000;5.39848000;2023-05-29T03:48:11;102436.25;;;9.49
7830;BMP180;3960;51.86894000;5.39848000;2023-05-29T03:50:36;102498.34;;;9.84
7830;BMP180;3960;51.86894000;5.39848000;2023-05-29T03:53:02;102438.84;;;9.43
7830;BMP180;3960;51.86894000;5.39848000;2023-05-29T03:55:27;102444.31;;;9.46
7830;BMP180;3960;51.86894000;5.39848000;2023-05-29T03:57:53;102482.66;;;9.70
7830;BMP180;3960;51.86894000;5.39848000;2023-05-29T04:00:18;102497.16;;;9.81
7830;BMP180;3960;51.86894000;5.39848000;2023-05-29T04:02:44;102504.13;;;9.82
7830;BMP180;3960;51.86894000;5.39848000;2023-05-29T04:05:10;102514.28;;;9.89
7830;BMP180;3960;51.86894000;5.39848000;2023-05-29T04:07:35;102465.00;;;9.57
7830;BMP180;3960;51.86894000;5.39848000;2023-05-29T04:10:05;102521.31;;;9.93
7830;BMP180;3960;51.86894000;5.39848000;2023-05-29T04:12:31;102510.00;;;9.88
7830;BMP180;3960;51.86894000;5.39848000;2023-05-29T04:14:57;102497.63;;;9.87
7830;BMP180;3960;51.86894000;5.39848000;2023-05-29T04:17:22;102476.19;;;9.78
7830;BMP180;3960;51.86894000;5.39848000;2023-05-29T04:19:48;102466.53;;;9.77
7830;BMP180;3960;51.86894000;5.39848000;2023-05-29T04:22:13;102476.63;;;9.80
7830;BMP180;3960;51.86894000;5.39848000;2023-05-29T04:24:39;102472.34;;;9.79
7830;BMP180;3960;51.86894000;5.39848000;2023-05-29T04:27:05;102525.66;;;10.17
7830;BMP180;3960;51.86894000;5.39848000;2023-05-29T04:29:30;102528.31;;;10.13
7830;BMP180;3960;51.86894000;5.39848000;2023-05-29T04:31:56;102534.56;;;10.17
7830;BMP180;3960;51.86894000;5.39848000;2023-05-29T04:34:21;102517.78;;;10.08
7830;BMP180;3960;51.86894000;5.39848000;2023-05-29T04:36:47;102516.75;;;10.16
7830;BMP180;3960;51.86894000;5.39848000;2023-05-29T04:39:13;102473.94;;;9.80
7830;BMP180;3960;51.86894000;5.39848000;2023-05-29T04:41:39;102490.56;;;10.01
7830;BMP180;3960;51.86894000;5.39848000;2023-05-29T04:44:06;102466.31;;;9.86
7830;BMP180;3960;51.86894000;5.39848000;2023-05-29T04:46:31;102479.16;;;9.92
7830;BMP180;3960;51.86894000;5.39848000;2023-05-29T04:48:56;102518.22;;;10.10
7830;BMP180;3960;51.86894000;5.39848000;2023-05-29T04:51:22;102490.50;;;9.98
7830;BMP180;3960;51.86894000;5.39848000;2023-05-29T04:53:50;102526.44;;;10.17
7830;BMP180;3960;51.86894000;5.39848000;2023-05-29T04:56:19;102545.22;;;10.29
7830;BMP180;3960;51.86894000;5.39848000;2023-05-29T04:58:45;102545.16;;;10.25
7830;BMP180;3960;51.86894000;5.39848000;2023-05-29T05:01:10;102521.56;;;10.04
7830;BMP180;3960;51.86894000;5.39848000;2023-05-29T05:03:42;102536.91;;;10.18
7830;BMP180;3960;51.86894000;5.39848000;2023-05-29T05:06:09;102513.44;;;10.04
7830;BMP180;3960;51.86894000;5.39848000;2023-05-29T05:08:34;102561.88;;;10.31
7830;BMP180;3960;51.86894000;5.39848000;2023-05-29T05:11:00;102546.00;;;10.29
7830;BMP180;3960;51.86894000;5.39848000;2023-05-29T05:13:26;102572.94;;;10.45
7830;BMP180;3960;51.86894000;5.39848000;2023-05-29T05:15:52;102531.91;;;10.20
7830;BMP180;3960;51.86894000;5.39848000;2023-05-29T05:18:17;102514.44;;;10.18
7830;BMP180;3960;51.86894000;5.39848000;2023-05-29T05:20:42;102554.38;;;10.43
7830;BMP180;3960;51.86894000;5.39848000;2023-05-29T05:23:09;102572.47;;;10.62
7830;BMP180;3960;51.86894000;5.39848000;2023-05-29T05:25:34;102542.06;;;10.49
7830;BMP180;3960;51.86894000;5.39848000;2023-05-29T05:28:01;102528.53;;;10.49
7830;BMP180;3960;51.86894000;5.39848000;2023-05-29T05:30:26;102507.81;;;10.38
7830;BMP180;3960;51.86894000;5.39848000;2023-05-29T05:32:51;102528.28;;;10.58
7830;BMP180;3960;51.86894000;5.39848000;2023-05-29T05:35:16;102550.75;;;10.84
7830;BMP180;3960;51.86894000;5.39848000;2023-05-29T05:37:42;102561.56;;;11.06
7830;BMP180;3960;51.86894000;5.39848000;2023-05-29T05:40:07;102554.25;;;11.10
7830;BMP180;3960;51.86894000;5.39848000;2023-05-29T05:42:34;102547.44;;;11.23
7830;BMP180;3960;51.86894000;5.39848000;2023-05-29T05:44:59;102561.41;;;11.51
7830;BMP180;3960;51.86894000;5.39848000;2023-05-29T05:47:24;102560.13;;;11.74
7830;BMP180;3960;51.86894000;5.39848000;2023-05-29T05:49:50;102568.91;;;11.97
7830;BMP180;3960;51.86894000;5.39848000;2023-05-29T05:52:17;102571.91;;;12.25
7830;BMP180;3960;51.86894000;5.39848000;2023-05-29T05:54:42;102581.16;;;12.60
7830;BMP180;3960;51.86894000;5.39848000;2023-05-29T05:57:08;102567.28;;;12.72
7830;BMP180;3960;51.86894000;5.39848000;2023-05-29T05:59:33;102568.91;;;12.80
7830;BMP180;3960;51.86894000;5.39848000;2023-05-29T06:01:58;102569.81;;;12.98
7830;BMP180;3960;51.86894000;5.39848000;2023-05-29T06:04:23;102581.22;;;13.17
7830;BMP180;3960;51.86894000;5.39848000;2023-05-29T06:06:49;102548.19;;;13.19
7830;BMP180;3960;51.86894000;5.39848000;2023-05-29T06:09:14;102572.50;;;13.62
7830;BMP180;3960;51.86894000;5.39848000;2023-05-29T06:11:39;102606.47;;;13.92
7830;BMP180;3960;51.86894000;5.39848000;2023-05-29T06:14:05;102578.84;;;14.04
7830;BMP180;3960;51.86894000;5.39848000;2023-05-29T06:16:30;102595.69;;;14.34
7830;BMP180;3960;51.86894000;5.39848000;2023-05-29T06:18:56;102595.69;;;14.55
7830;BMP180;3960;51.86894000;5.39848000;2023-05-29T06:21:21;102607.00;;;14.85
7830;BMP180;3960;51.86894000;5.39848000;2023-05-29T06:23:46;102562.22;;;14.72
7830;BMP180;3960;51.86894000;5.39848000;2023-05-29T06:26:12;102581.22;;;15.10
7830;BMP180;3960;51.86894000;5.39848000;2023-05-29T06:28:38;102568.75;;;15.13
7830;BMP180;3960;51.86894000;5.39848000;2023-05-29T06:31:03;102596.78;;;15.44
7830;BMP180;3960;51.86894000;5.39848000;2023-05-29T06:33:29;102599.06;;;15.60
7830;BMP180;3960;51.86894000;5.39848000;2023-05-29T06:35:55;102605.66;;;15.73
7830;BMP180;3960;51.86894000;5.39848000;2023-05-29T06:38:20;102604.06;;;15.75
7830;BMP180;3960;51.86894000;5.39848000;2023-05-29T06:40:46;102595.75;;;16.00
7830;BMP180;3960;51.86894000;5.39848000;2023-05-29T06:43:11;102585.03;;;16.26
7830;BMP180;3960;51.86894000;5.39848000;2023-05-29T06:45:37;102598.56;;;16.54
7830;BMP180;3960;51.86894000;5.39848000;2023-05-29T06:48:02;102586.94;;;16.43
7830;BMP180;3960;51.86894000;5.39848000;2023-05-29T06:50:27;102603.22;;;16.53
7830;BMP180;3960;51.86894000;5.39848000;2023-05-29T06:52:52;102593.75;;;16.68
7830;BMP180;3960;51.86894000;5.39848000;2023-05-29T06:55:19;102603.56;;;17.02
7830;BMP180;3960;51.86894000;5.39848000;2023-05-29T06:57:44;102595.34;;;17.06
7830;BMP180;3960;51.86894000;5.39848000;2023-05-29T07:00:10;102603.97;;;17.04
7830;BMP180;3960;51.86894000;5.39848000;2023-05-29T07:02:36;102588.09;;;16.89
7830;BMP180;3960;51.86894000;5.39848000;2023-05-29T07:05:01;102594.25;;;16.96
7830;BMP180;3960;51.86894000;5.39848000;2023-05-29T07:07:27;102601.50;;;17.17
7830;BMP180;3960;51.86894000;5.39848000;2023-05-29T07:09:52;102608.81;;;17.30
7830;BMP180;3960;51.86894000;5.39848000;2023-05-29T07:12:21;102590.25;;;17.08
7830;BMP180;3960;51.86894000;5.39848000;2023-05-29T07:14:47;102587.44;;;17.15
7830;BMP180;3960;51.86894000;5.39848000;2023-05-29T07:17:13;102612.78;;;17.59
7830;BMP180;3960;51.86894000;5.39848000;2023-05-29T07:19:39;102600.69;;;17.86
7830;BMP180;3960;51.86894000;5.39848000;2023-05-29T07:22:04;102601.38;;;17.94
7830;BMP180;3960;51.86894000;5.39848000;2023-05-29T07:24:30;102611.63;;;17.90
7830;BMP180;3960;51.86894000;5.39848000;2023-05-29T07:26:55;102579.81;;;17.96
7830;BMP180;3960;51.86894000;5.39848000;2023-05-29T07:29:20;102595.38;;;18.32
7830;BMP180;3960;51.86894000;5.39848000;2023-05-29T07:31:48;102595.09;;;18.49
7830;BMP180;3960;51.86894000;5.39848000;2023-05-29T07:34:13;102618.06;;;18.82
7830;BMP180;3960;51.86894000;5.39848000;2023-05-29T07:36:59;102556.97;;;18.55
7830;BMP180;3960;51.86894000;5.39848000;2023-05-29T07:39:25;102600.59;;;18.95
7830;BMP180;3960;51.86894000;5.39848000;2023-05-29T07:41:51;102568.06;;;18.71
7830;BMP180;3960;51.86894000;5.39848000;2023-05-29T07:44:16;102618.22;;;19.40
7830;BMP180;3960;51.86894000;5.39848000;2023-05-29T07:46:41;102590.44;;;19.34
7830;BMP180;3960;51.86894000;5.39848000;2023-05-29T07:49:07;102613.28;;;19.31
7830;BMP180;3960;51.86894000;5.39848000;2023-05-29T07:51:32;102612.50;;;19.08
7830;BMP180;3960;51.86894000;5.39848000;2023-05-29T07:53:57;102615.31;;;19.27
7830;BMP180;3960;51.86894000;5.39848000;2023-05-29T07:56:23;102623.44;;;19.54
7830;BMP180;3960;51.86894000;5.39848000;2023-05-29T07:58:48;102585.44;;;19.29
7830;BMP180;3960;51.86894000;5.39848000;2023-05-29T08:01:13;102609.69;;;19.73
7830;BMP180;3960;51.86894000;5.39848000;2023-05-29T08:03:41;102618.75;;;19.89
7830;BMP180;3960;51.86894000;5.39848000;2023-05-29T08:06:06;102615.56;;;20.10
7830;BMP180;3960;51.86894000;5.39848000;2023-05-29T08:08:32;102602.63;;;20.11
7830;BMP180;3960;51.86894000;5.39848000;2023-05-29T08:10:57;102597.09;;;20.11
7830;BMP180;3960;51.86894000;5.39848000;2023-05-29T08:13:22;102626.06;;;20.15
7830;BMP180;3960;51.86894000;5.39848000;2023-05-29T08:15:51;102612.47;;;20.08
7830;BMP180;3960;51.86894000;5.39848000;2023-05-29T08:18:16;102618.38;;;20.26
7830;BMP180;3960;51.86894000;5.39848000;2023-05-29T08:20:41;102604.03;;;19.99
7830;BMP180;3960;51.86894000;5.39848000;2023-05-29T08:23:08;102634.94;;;20.23
7830;BMP180;3960;51.86894000;5.39848000;2023-05-29T08:25:33;102617.38;;;19.81
7830;BMP180;3960;51.86894000;5.39848000;2023-05-29T08:27:58;102631.66;;;20.12
7830;BMP180;3960;51.86894000;5.39848000;2023-05-29T08:30:23;102620.41;;;20.22
7830;BMP180;3960;51.86894000;5.39848000;2023-05-29T08:32:49;102631.63;;;20.47
7830;BMP180;3960;51.86894000;5.39848000;2023-05-29T08:35:15;102621.13;;;20.42
7830;BMP180;3960;51.86894000;5.39848000;2023-05-29T08:37:41;102631.97;;;20.65
7830;BMP180;3960;51.86894000;5.39848000;2023-05-29T08:40:07;102626.16;;;20.79
7830;BMP180;3960;51.86894000;5.39848000;2023-05-29T08:42:36;102624.16;;;20.79
7830;BMP180;3960;51.86894000;5.39848000;2023-05-29T08:45:06;102615.22;;;20.75
7830;BMP180;3960;51.86894000;5.39848000;2023-05-29T08:47:33;102636.38;;;20.94
7830;BMP180;3960;51.86894000;5.39848000;2023-05-29T08:50:00;102632.59;;;20.88
7830;BMP180;3960;51.86894000;5.39848000;2023-05-29T08:52:26;102635.66;;;21.06
7830;BMP180;3960;51.86894000;5.39848000;2023-05-29T08:54:53;102637.31;;;21.04
7830;BMP180;3960;51.86894000;5.39848000;2023-05-29T08:57:19;102628.91;;;21.23
7830;BMP180;3960;51.86894000;5.39848000;2023-05-29T08:59:46;102631.06;;;21.60
7830;BMP180;3960;51.86894000;5.39848000;2023-05-29T09:02:14;102633.09;;;21.72
7830;BMP180;3960;51.86894000;5.39848000;2023-05-29T09:04:44;102632.66;;;21.45
7830;BMP180;3960;51.86894000;5.39848000;2023-05-29T09:07:18;102631.28;;;21.37
7830;BMP180;3960;51.86894000;5.39848000;2023-05-29T09:09:44;102639.63;;;21.49
7830;BMP180;3960;51.86894000;5.39848000;2023-05-29T09:12:10;102644.78;;;21.47
7830;BMP180;3960;51.86894000;5.39848000;2023-05-29T09:14:36;102637.59;;;21.37
7830;BMP180;3960;51.86894000;5.39848000;2023-05-29T09:17:03;102634.47;;;21.35
7830;BMP180;3960;51.86894000;5.39848000;2023-05-29T09:19:29;102623.59;;;21.16
7830;BMP180;3960;51.86894000;5.39848000;2023-05-29T09:22:10;102631.84;;;21.60
7830;BMP180;3960;51.86894000;5.39848000;2023-05-29T09:24:37;102623.59;;;21.73
7830;BMP180;3960;51.86894000;5.39848000;2023-05-29T09:27:04;102633.47;;;22.11
7830;BMP180;3960;51.86894000;5.39848000;2023-05-29T09:29:33;102629.53;;;22.24
7830;BMP180;3960;51.86894000;5.39848000;2023-05-29T09:31:59;102619.06;;;22.44
7830;BMP180;3960;51.86894000;5.39848000;2023-05-29T09:34:25;102603.03;;;22.27
7830;BMP180;3960;51.86894000;5.39848000;2023-05-29T09:37:00;102614.06;;;22.52
7830;BMP180;3960;51.86894000;5.39848000;2023-05-29T09:39:32;102621.25;;;22.37
7830;BMP180;3960;51.86894000;5.39848000;2023-05-29T09:41:58;102624.88;;;22.21
7830;BMP180;3960;51.86894000;5.39848000;2023-05-29T09:44:26;102628.44;;;22.34
7830;BMP180;3960;51.86894000;5.39848000;2023-05-29T09:46:58;102622.47;;;22.61
7830;BMP180;3960;51.86894000;5.39848000;2023-05-29T09:49:23;102626.09;;;22.58
7830;BMP180;3960;51.86894000;5.39848000;2023-05-29T09:51:53;102617.06;;;22.57
7830;BMP180;3960;51.86894000;5.39848000;2023-05-29T09:54:19;102621.66;;;22.60
7830;BMP180;3960;51.86894000;5.39848000;2023-05-29T09:56:45;102621.78;;;22.69
7830;BMP180;3960;51.86894000;5.39848000;2023-05-29T09:59:12;102612.63;;;22.60
7830;BMP180;3960;51.86894000;5.39848000;2023-05-29T10:01:42;102600.38;;;22.48
7830;BMP180;3960;51.86894000;5.39848000;2023-05-29T10:04:12;102605.34;;;22.41
7830;BMP180;3960;51.86894000;5.39848000;2023-05-29T10:06:41;102602.50;;;22.44
7830;BMP180;3960;51.86894000;5.39848000;2023-05-29T10:09:10;102605.66;;;22.55
7830;BMP180;3960;51.86894000;5.39848000;2023-05-29T10:11:38;102611.59;;;22.66
7830;BMP180;3960;51.86894000;5.39848000;2023-05-29T10:14:05;102606.88;;;22.54
7830;BMP180;3960;51.86894000;5.39848000;2023-05-29T10:16:32;102600.25;;;22.27
7830;BMP180;3960;51.86894000;5.39848000;2023-05-29T10:19:01;102602.03;;;22.33
7830;BMP180;3960;51.86894000;5.39848000;2023-05-29T10:21:27;102615.50;;;22.56
7830;BMP180;3960;51.86894000;5.39848000;2023-05-29T10:23:54;102609.19;;;22.68
7830;BMP180;3960;51.86894000;5.39848000;2023-05-29T10:26:26;102609.69;;;22.88
7830;BMP180;3960;51.86894000;5.39848000;2023-05-29T10:28:58;102622.50;;;22.94
7830;BMP180;3960;51.86894000;5.39848000;2023-05-29T10:31:32;102616.94;;;23.07
7830;BMP180;3960;51.86894000;5.39848000;2023-05-29T10:34:23;102592.63;;;23.14
7830;BMP180;3960;51.86894000;5.39848000;2023-05-29T10:37:01;102571.97;;;22.94
7830;BMP180;3960;51.86894000;5.39848000;2023-05-29T10:39:29;102591.06;;;23.35
7830;BMP180;3960;51.86894000;5.39848000;2023-05-29T10:41:54;102598.97;;;23.24
7830;BMP180;3960;51.86894000;5.39848000;2023-05-29T10:47:05;102575.69;;;22.78
7830;BMP180;3960;51.86894000;5.39848000;2023-05-29T10:49:30;102595.88;;;22.88
7830;BMP180;3960;51.86894000;5.39848000;2023-05-29T10:51:58;102598.19;;;22.89
7830;BMP180;3960;51.86894000;5.39848000;2023-05-29T10:54:26;102572.06;;;22.69
7830;BMP180;3960;51.86894000;5.39848000;2023-05-29T10:56:56;102556.56;;;22.72
7830;BMP180;3960;51.86894000;5.39848000;2023-05-29T10:59:22;102582.06;;;22.88
7830;BMP180;3960;51.86894000;5.39848000;2023-05-29T11:01:52;102571.94;;;22.73
7830;BMP180;3960;51.86894000;5.39848000;2023-05-29T11:06:47;102566.31;;;22.97
7830;BMP180;3960;51.86894000;5.39848000;2023-05-29T11:09:36;102593.13;;;23.22
7830;BMP180;3960;51.86894000;5.39848000;2023-05-29T11:14:47;102584.56;;;23.29
7830;BMP180;3960;51.86894000;5.39848000;2023-05-29T11:20:00;102575.91;;;23.39
7830;BMP180;3960;51.86894000;5.39848000;2023-05-29T11:22:32;102574.09;;;23.45
7830;BMP180;3960;51.86894000;5.39848000;2023-05-29T11:24:59;102578.97;;;23.41
7830;BMP180;3960;51.86894000;5.39848000;2023-05-29T11:27:25;102574.59;;;23.31
7830;BMP180;3960;51.86894000;5.39848000;2023-05-29T11:29:51;102582.28;;;23.27
7830;BMP180;3960;51.86894000;5.39848000;2023-05-29T11:32:21;102572.09;;;23.03
7830;BMP180;3960;51.86894000;5.39848000;2023-05-29T11:34:49;102586.63;;;23.16
7830;BMP180;3960;51.86894000;5.39848000;2023-05-29T11:37:17;102554.72;;;23.02
7830;BMP180;3960;51.86894000;5.39848000;2023-05-29T11:39:42;102567.06;;;23.32
7830;BMP180;3960;51.86894000;5.39848000;2023-05-29T11:42:08;102557.09;;;23.55
7830;BMP180;3960;51.86894000;5.39848000;2023-05-29T11:44:33;102573.31;;;23.66
7830;BMP180;3960;51.86894000;5.39848000;2023-05-29T11:47:06;102574.16;;;23.75
7830;BMP180;3960;51.86894000;5.39848000;2023-05-29T11:49:33;102573.69;;;23.77
7830;BMP180;3960;51.86894000;5.39848000;2023-05-29T11:52:09;102562.81;;;23.61
7830;BMP180;3960;51.86894000;5.39848000;2023-05-29T11:54:35;102576.38;;;23.68
7830;BMP180;3960;51.86894000;5.39848000;2023-05-29T11:57:02;102553.75;;;23.60
7830;BMP180;3960;51.86894000;5.39848000;2023-05-29T11:59:31;102543.22;;;23.47
7830;BMP180;3960;51.86894000;5.39848000;2023-05-29T12:01:57;102545.59;;;23.57
7830;BMP180;3960;51.86894000;5.39848000;2023-05-29T12:04:22;102558.72;;;23.44
7830;BMP180;3960;51.86894000;5.39848000;2023-05-29T12:06:49;102575.31;;;23.23
7830;BMP180;3960;51.86894000;5.39848000;2023-05-29T12:09:26;102560.44;;;23.29
7830;BMP180;3960;51.86894000;5.39848000;2023-05-29T12:11:51;102572.16;;;23.12
7830;BMP180;3960;51.86894000;5.39848000;2023-05-29T12:14:17;102550.13;;;22.87
7830;BMP180;3960;51.86894000;5.39848000;2023-05-29T12:16:42;102561.88;;;22.78
7830;BMP180;3960;51.86894000;5.39848000;2023-05-29T12:19:07;102559.91;;;22.67
7830;BMP180;3960;51.86894000;5.39848000;2023-05-29T12:21:33;102536.59;;;22.68
7830;BMP180;3960;51.86894000;5.39848000;2023-05-29T12:23:58;102560.88;;;22.73
7830;BMP180;3960;51.86894000;5.39848000;2023-05-29T12:26:24;102549.59;;;22.79
7830;BMP180;3960;51.86894000;5.39848000;2023-05-29T12:28:51;102557.47;;;23.02
7830;BMP180;3960;51.86894000;5.39848000;2023-05-29T12:31:27;102545.41;;;23.09
7830;BMP180;3960;51.86894000;5.39848000;2023-05-29T12:33:53;102552.28;;;23.47
7830;BMP180;3960;51.86894000;5.39848000;2023-05-29T12:36:18;102534.81;;;23.80
7830;BMP180;3960;51.86894000;5.39848000;2023-05-29T12:38:51;102549.13;;;24.27
7830;BMP180;3960;51.86894000;5.39848000;2023-05-29T12:41:33;102548.88;;;24.43